Warning: fopen(/var/www/metroair/shared/private/wxdata/metar/AVWX/metar_ETAR): failed to open stream: Permission denied in /var/www/metroair/shared/private/library/orig_library/lib_airport.php on line 346

Warning: fwrite() expects parameter 1 to be resource, boolean given in /var/www/metroair/shared/private/library/orig_library/lib_airport.php on line 347

Warning: fclose() expects parameter 1 to be resource, boolean given in /var/www/metroair/shared/private/library/orig_library/lib_airport.php on line 348

Warning: fopen(/var/www/metroair/shared/private/wxdata/TAF/AVWX/taf_ETAR): failed to open stream: Permission denied in /var/www/metroair/shared/private/library/orig_library/lib_airport.php on line 533

Warning: fwrite() expects parameter 1 to be resource, boolean given in /var/www/metroair/shared/private/library/orig_library/lib_airport.php on line 534

Warning: fclose() expects parameter 1 to be resource, boolean given in /var/www/metroair/shared/private/library/orig_library/lib_airport.php on line 535

MET9202 - Aviano AFB to Ramstein AFB

Airbus A330-243
792MT
0 hrs 40 mins
281 nm
Charter - SU

Departure

Departing from
Aviano AFB (AVB)
Departure gate
Ramp
Scheduled Departure
GMT 1800
Local 2000
METAR
TAF TAF LIPA 252000Z 2521/2606 VRB03KT 9999 FEW090
  • No charts available

Arrival

Arriving at
Ramstein AFB (RMS)
Arrival gate
Ramp
Scheduled Arrival
GMT 1840
Local 2040
METAR ETAR 260458Z 23003KT 9999 FEW100 02/01 A2999 RMK AO2A SLP168 T00150009 $
TAF TAF ETAR 260203Z 2602/2708 23009KT 9999 BKN100 611008 QNH3000INS BECMG 2606/2607 23010G15KT 9999 BKN070 QNH2996INS BECMG 2616/2617 24015G20KT 9999 BKN030 QNH2988INS BECMG 2621/2622 22015G20KT 9000 -SHRA BKN010 QNH2976INS TX11/2615Z TNM04/2603Z

Route Map

Return Flights

MET9202
Airbus A330-243
1330 GMT

Popularity

Hub Current Bids PiReps this month Total PiReps
KMCI 0 0 0
KLAX 0 0 0
KBOS 0 0 0